sensor_id;sensor_type;location;lat;lon;timestamp;temperature;humidity
6879;DHT22;3478;51.462;7.338;2023-11-19T00:02:46;10.10;99.90
6879;DHT22;3478;51.462;7.338;2023-11-19T00:07:48;10.10;99.90
6879;DHT22;3478;51.462;7.338;2023-11-19T00:12:51;10.20;99.90
6879;DHT22;3478;51.462;7.338;2023-11-19T00:17:53;10.30;99.90
6879;DHT22;3478;51.462;7.338;2023-11-19T00:22:55;10.40;99.90
6879;DHT22;3478;51.462;7.338;2023-11-19T00:27:59;10.50;99.90
6879;DHT22;3478;51.462;7.338;2023-11-19T00:33:01;10.60;99.90
6879;DHT22;3478;51.462;7.338;2023-11-19T00:38:03;10.60;99.90
6879;DHT22;3478;51.462;7.338;2023-11-19T00:43:06;10.70;99.90
6879;DHT22;3478;51.462;7.338;2023-11-19T00:48:08;10.70;99.90
6879;DHT22;3478;51.462;7.338;2023-11-19T00:53:10;10.90;99.90
6879;DHT22;3478;51.462;7.338;2023-11-19T00:58:13;11.10;99.90
6879;DHT22;3478;51.462;7.338;2023-11-19T01:03:15;11.20;99.90
6879;DHT22;3478;51.462;7.338;2023-11-19T01:08:16;11.20;99.90
6879;DHT22;3478;51.462;7.338;2023-11-19T01:13:20;11.30;99.90
6879;DHT22;3478;51.462;7.338;2023-11-19T01:18:22;11.30;99.90
6879;DHT22;3478;51.462;7.338;2023-11-19T01:23:24;11.40;99.90
6879;DHT22;3478;51.462;7.338;2023-11-19T01:28:27;11.40;99.90
6879;DHT22;3478;51.462;7.338;2023-11-19T01:33:28;11.40;99.90
6879;DHT22;3478;51.462;7.338;2023-11-19T01:38:30;11.50;99.90
6879;DHT22;3478;51.462;7.338;2023-11-19T01:43:35;11.40;99.90
6879;DHT22;3478;51.462;7.338;2023-11-19T01:48:40;11.50;99.90
6879;DHT22;3478;51.462;7.338;2023-11-19T01:53:43;11.50;99.90
6879;DHT22;3478;51.462;7.338;2023-11-19T01:58:49;11.50;99.90
6879;DHT22;3478;51.462;7.338;2023-11-19T02:03:51;11.40;99.90
6879;DHT22;3478;51.462;7.338;2023-11-19T02:08:53;11.50;99.90
6879;DHT22;3478;51.462;7.338;2023-11-19T02:13:57;11.50;99.90
6879;DHT22;3478;51.462;7.338;2023-11-19T02:18:59;11.50;99.90
6879;DHT22;3478;51.462;7.338;2023-11-19T02:24:02;11.50;99.90
6879;DHT22;3478;51.462;7.338;2023-11-19T02:29:08;11.60;99.90
6879;DHT22;3478;51.462;7.338;2023-11-19T02:34:10;11.60;99.90
6879;DHT22;3478;51.462;7.338;2023-11-19T02:39:13;11.60;99.90
6879;DHT22;3478;51.462;7.338;2023-11-19T02:44:17;11.70;99.90
6879;DHT22;3478;51.462;7.338;2023-11-19T02:49:18;11.70;99.90
6879;DHT22;3478;51.462;7.338;2023-11-19T02:54:21;11.70;99.90
6879;DHT22;3478;51.462;7.338;2023-11-19T02:59:28;11.70;99.90
6879;DHT22;3478;51.462;7.338;2023-11-19T03:04:39;11.70;99.90
6879;DHT22;3478;51.462;7.338;2023-11-19T03:09:41;11.70;99.90
6879;DHT22;3478;51.462;7.338;2023-11-19T03:14:45;11.80;99.90
6879;DHT22;3478;51.462;7.338;2023-11-19T03:19:48;11.90;99.90
6879;DHT22;3478;51.462;7.338;2023-11-19T03:24:51;11.90;99.90
6879;DHT22;3478;51.462;7.338;2023-11-19T03:29:54;12.00;99.90
6879;DHT22;3478;51.462;7.338;2023-11-19T03:34:56;12.00;99.90
6879;DHT22;3478;51.462;7.338;2023-11-19T03:39:58;12.00;99.90
6879;DHT22;3478;51.462;7.338;2023-11-19T03:45:02;12.00;99.90
6879;DHT22;3478;51.462;7.338;2023-11-19T03:50:06;12.00;99.90
6879;DHT22;3478;51.462;7.338;2023-11-19T03:55:09;12.00;99.90
6879;DHT22;3478;51.462;7.338;2023-11-19T04:00:13;11.90;99.90
6879;DHT22;3478;51.462;7.338;2023-11-19T04:05:15;11.90;99.90
6879;DHT22;3478;51.462;7.338;2023-11-19T04:10:19;11.90;99.90
6879;DHT22;3478;51.462;7.338;2023-11-19T04:15:24;11.90;99.90
6879;DHT22;3478;51.462;7.338;2023-11-19T04:20:26;11.80;99.90
6879;DHT22;3478;51.462;7.338;2023-11-19T04:25:28;11.70;99.90
6879;DHT22;3478;51.462;7.338;2023-11-19T04:30:31;11.70;99.90
6879;DHT22;3478;51.462;7.338;2023-11-19T04:35:33;11.70;99.90
6879;DHT22;3478;51.462;7.338;2023-11-19T04:40:35;11.70;99.90
6879;DHT22;3478;51.462;7.338;2023-11-19T04:45:38;11.70;99.90
6879;DHT22;3478;51.462;7.338;2023-11-19T04:50:40;11.60;99.90
6879;DHT22;3478;51.462;7.338;2023-11-19T04:55:42;11.60;99.90
6879;DHT22;3478;51.462;7.338;2023-11-19T05:00:46;11.60;99.90
6879;DHT22;3478;51.462;7.338;2023-11-19T05:05:47;11.70;99.90
6879;DHT22;3478;51.462;7.338;2023-11-19T05:10:50;11.70;99.90
6879;DHT22;3478;51.462;7.338;2023-11-19T05:15:53;11.70;99.90
6879;DHT22;3478;51.462;7.338;2023-11-19T05:20:55;11.70;99.90
6879;DHT22;3478;51.462;7.338;2023-11-19T05:25:57;11.60;99.90
6879;DHT22;3478;51.462;7.338;2023-11-19T05:31:00;11.70;99.90
6879;DHT22;3478;51.462;7.338;2023-11-19T05:36:02;11.70;99.90
6879;DHT22;3478;51.462;7.338;2023-11-19T05:41:05;11.70;99.90
6879;DHT22;3478;51.462;7.338;2023-11-19T05:46:08;11.70;99.90
6879;DHT22;3478;51.462;7.338;2023-11-19T05:51:10;11.70;99.90
6879;DHT22;3478;51.462;7.338;2023-11-19T05:56:12;11.70;99.90
6879;DHT22;3478;51.462;7.338;2023-11-19T06:01:17;11.80;99.90
6879;DHT22;3478;51.462;7.338;2023-11-19T06:06:19;11.80;99.90
6879;DHT22;3478;51.462;7.338;2023-11-19T06:11:21;11.70;99.90
6879;DHT22;3478;51.462;7.338;2023-11-19T06:16:24;11.70;99.90
6879;DHT22;3478;51.462;7.338;2023-11-19T06:21:26;11.70;99.90
6879;DHT22;3478;51.462;7.338;2023-11-19T06:26:27;11.70;99.90
6879;DHT22;3478;51.462;7.338;2023-11-19T06:31:31;11.70;99.90
6879;DHT22;3478;51.462;7.338;2023-11-19T06:36:32;11.70;99.90
6879;DHT22;3478;51.462;7.338;2023-11-19T06:41:34;11.60;99.90
6879;DHT22;3478;51.462;7.338;2023-11-19T06:46:40;11.60;99.90
6879;DHT22;3478;51.462;7.338;2023-11-19T06:51:42;11.60;99.90
6879;DHT22;3478;51.462;7.338;2023-11-19T06:56:44;11.50;99.90
6879;DHT22;3478;51.462;7.338;2023-11-19T07:01:48;11.50;99.90
6879;DHT22;3478;51.462;7.338;2023-11-19T07:06:50;11.50;99.90
6879;DHT22;3478;51.462;7.338;2023-11-19T07:11:52;11.40;99.90
6879;DHT22;3478;51.462;7.338;2023-11-19T07:16:56;11.50;99.90
6879;DHT22;3478;51.462;7.338;2023-11-19T07:21:57;11.40;99.90
6879;DHT22;3478;51.462;7.338;2023-11-19T07:26:59;11.40;99.90
6879;DHT22;3478;51.462;7.338;2023-11-19T07:32:05;11.30;99.90
6879;DHT22;3478;51.462;7.338;2023-11-19T07:37:08;11.30;99.90
6879;DHT22;3478;51.462;7.338;2023-11-19T07:42:10;11.20;99.90
6879;DHT22;3478;51.462;7.338;2023-11-19T07:47:13;11.20;99.90
6879;DHT22;3478;51.462;7.338;2023-11-19T07:52:15;11.20;99.90
6879;DHT22;3478;51.462;7.338;2023-11-19T07:57:17;11.20;99.90
6879;DHT22;3478;51.462;7.338;2023-11-19T08:02:20;11.10;99.90
6879;DHT22;3478;51.462;7.338;2023-11-19T08:07:22;11.10;99.90
6879;DHT22;3478;51.462;7.338;2023-11-19T08:12:24;11.10;99.90
6879;DHT22;3478;51.462;7.338;2023-11-19T08:17:27;11.10;99.90
6879;DHT22;3478;51.462;7.338;2023-11-19T08:22:29;11.10;99.90
6879;DHT22;3478;51.462;7.338;2023-11-19T08:27:31;11.20;99.90
6879;DHT22;3478;51.462;7.338;2023-11-19T08:32:34;11.30;99.90
6879;DHT22;3478;51.462;7.338;2023-11-19T08:37:37;11.40;99.90
6879;DHT22;3478;51.462;7.338;2023-11-19T08:42:39;11.30;99.90
6879;DHT22;3478;51.462;7.338;2023-11-19T08:47:42;11.30;99.90
6879;DHT22;3478;51.462;7.338;2023-11-19T08:52:45;11.40;99.90
6879;DHT22;3478;51.462;7.338;2023-11-19T08:57:47;11.60;99.90
6879;DHT22;3478;51.462;7.338;2023-11-19T09:02:50;11.70;99.90
6879;DHT22;3478;51.462;7.338;2023-11-19T09:07:52;11.80;99.90
6879;DHT22;3478;51.462;7.338;2023-11-19T09:12:54;11.70;99.90
6879;DHT22;3478;51.462;7.338;2023-11-19T09:17:57;11.70;99.90
6879;DHT22;3478;51.462;7.338;2023-11-19T09:22:59;11.80;99.90
6879;DHT22;3478;51.462;7.338;2023-11-19T09:28:01;11.80;99.90
6879;DHT22;3478;51.462;7.338;2023-11-19T09:33:04;11.80;99.90
6879;DHT22;3478;51.462;7.338;2023-11-19T09:38:06;11.90;1.00
6879;DHT22;3478;51.462;7.338;2023-11-19T09:43:08;11.90;1.00
6879;DHT22;3478;51.462;7.338;2023-11-19T09:48:16;11.90;1.00
6879;DHT22;3478;51.462;7.338;2023-11-19T09:53:18;12.00;99.90
6879;DHT22;3478;51.462;7.338;2023-11-19T09:58:20;12.00;1.00
6879;DHT22;3478;51.462;7.338;2023-11-19T10:03:24;12.20;1.00
6879;DHT22;3478;51.462;7.338;2023-11-19T10:08:31;12.20;1.00
6879;DHT22;3478;51.462;7.338;2023-11-19T10:13:35;12.20;99.90
6879;DHT22;3478;51.462;7.338;2023-11-19T10:18:44;12.30;1.00
6879;DHT22;3478;51.462;7.338;2023-11-19T10:23:50;12.40;1.00
6879;DHT22;3478;51.462;7.338;2023-11-19T10:28:52;12.50;1.00
6879;DHT22;3478;51.462;7.338;2023-11-19T10:33:55;12.40;1.70
6879;DHT22;3478;51.462;7.338;2023-11-19T10:38:57;12.40;42.30
6879;DHT22;3478;51.462;7.338;2023-11-19T10:44:00;12.40;99.90
6879;DHT22;3478;51.462;7.338;2023-11-19T10:49:03;12.30;1.00
6879;DHT22;3478;51.462;7.338;2023-11-19T10:54:05;12.20;60.80
6879;DHT22;3478;51.462;7.338;2023-11-19T10:59:08;12.30;99.90
6879;DHT22;3478;51.462;7.338;2023-11-19T11:04:14;12.40;99.90
6879;DHT22;3478;51.462;7.338;2023-11-19T11:09:17;12.40;99.90
6879;DHT22;3478;51.462;7.338;2023-11-19T11:14:20;12.40;99.90
6879;DHT22;3478;51.462;7.338;2023-11-19T11:19:25;12.30;99.90
6879;DHT22;3478;51.462;7.338;2023-11-19T11:24:53;12.20;99.90
6879;DHT22;3478;51.462;7.338;2023-11-19T11:30:11;12.30;99.90
6879;DHT22;3478;51.462;7.338;2023-11-19T11:35:27;12.40;99.90
6879;DHT22;3478;51.462;7.338;2023-11-19T11:40:31;12.40;99.90
6879;DHT22;3478;51.462;7.338;2023-11-19T11:45:37;12.50;99.90
6879;DHT22;3478;51.462;7.338;2023-11-19T11:50:57;12.50;99.90
6879;DHT22;3478;51.462;7.338;2023-11-19T11:55:59;12.80;99.90
6879;DHT22;3478;51.462;7.338;2023-11-19T12:01:04;13.20;99.90
6879;DHT22;3478;51.462;7.338;2023-11-19T12:06:08;13.40;99.90
6879;DHT22;3478;51.462;7.338;2023-11-19T12:11:10;13.40;99.90
6879;DHT22;3478;51.462;7.338;2023-11-19T12:16:12;13.30;99.90
6879;DHT22;3478;51.462;7.338;2023-11-19T12:21:29;13.10;99.90
6879;DHT22;3478;51.462;7.338;2023-11-19T12:26:36;13.20;99.90
6879;DHT22;3478;51.462;7.338;2023-11-19T12:31:44;13.50;99.90
6879;DHT22;3478;51.462;7.338;2023-11-19T12:36:47;13.30;99.90
6879;DHT22;3478;51.462;7.338;2023-11-19T12:41:53;13.10;99.90
6879;DHT22;3478;51.462;7.338;2023-11-19T12:47:05;13.00;99.90
6879;DHT22;3478;51.462;7.338;2023-11-19T12:52:14;13.10;99.90
6879;DHT22;3478;51.462;7.338;2023-11-19T12:57:17;13.10;99.90
6879;DHT22;3478;51.462;7.338;2023-11-19T13:02:20;13.00;99.90
6879;DHT22;3478;51.462;7.338;2023-11-19T13:07:23;12.90;99.90
6879;DHT22;3478;51.462;7.338;2023-11-19T13:12:25;12.80;1.00
6879;DHT22;3478;51.462;7.338;2023-11-19T13:17:27;12.50;1.00
6879;DHT22;3478;51.462;7.338;2023-11-19T13:22:30;12.20;99.90
6879;DHT22;3478;51.462;7.338;2023-11-19T13:27:32;12.20;99.90
6879;DHT22;3478;51.462;7.338;2023-11-19T13:32:34;12.10;99.90
6879;DHT22;3478;51.462;7.338;2023-11-19T13:37:37;12.10;1.00
6879;DHT22;3478;51.462;7.338;2023-11-19T13:42:42;12.10;1.00
6879;DHT22;3478;51.462;7.338;2023-11-19T13:47:44;14.00;99.90
6879;DHT22;3478;51.462;7.338;2023-11-19T13:52:48;15.20;99.90
6879;DHT22;3478;51.462;7.338;2023-11-19T13:57:50;14.80;99.90
6879;DHT22;3478;51.462;7.338;2023-11-19T14:02:51;13.70;99.90
6879;DHT22;3478;51.462;7.338;2023-11-19T14:07:55;13.20;99.90
6879;DHT22;3478;51.462;7.338;2023-11-19T14:12:58;13.00;99.90
6879;DHT22;3478;51.462;7.338;2023-11-19T14:18:00;12.90;1.00
6879;DHT22;3478;51.462;7.338;2023-11-19T14:23:03;12.60;1.00
6879;DHT22;3478;51.462;7.338;2023-11-19T14:28:05;12.50;99.90
6879;DHT22;3478;51.462;7.338;2023-11-19T14:33:07;12.30;99.90
6879;DHT22;3478;51.462;7.338;2023-11-19T14:38:10;12.20;1.00
6879;DHT22;3478;51.462;7.338;2023-11-19T14:43:12;12.20;99.90
6879;DHT22;3478;51.462;7.338;2023-11-19T14:48:15;12.10;99.90
6879;DHT22;3478;51.462;7.338;2023-11-19T14:53:19;11.90;1.00
6879;DHT22;3478;51.462;7.338;2023-11-19T14:58:21;11.80;1.00
6879;DHT22;3478;51.462;7.338;2023-11-19T15:03:23;11.70;1.00
6879;DHT22;3478;51.462;7.338;2023-11-19T15:08:26;11.60;1.00
6879;DHT22;3478;51.462;7.338;2023-11-19T15:13:28;11.60;1.00
6879;DHT22;3478;51.462;7.338;2023-11-19T15:18:29;11.60;1.00
6879;DHT22;3478;51.462;7.338;2023-11-19T15:23:33;11.50;1.00
6879;DHT22;3478;51.462;7.338;2023-11-19T15:28:34;11.40;1.00
6879;DHT22;3478;51.462;7.338;2023-11-19T15:33:36;11.30;1.00
6879;DHT22;3478;51.462;7.338;2023-11-19T15:38:40;11.30;1.00
6879;DHT22;3478;51.462;7.338;2023-11-19T15:43:42;11.20;1.00
6879;DHT22;3478;51.462;7.338;2023-11-19T15:48:44;11.20;1.00
6879;DHT22;3478;51.462;7.338;2023-11-19T15:53:47;11.20;99.90
6879;DHT22;3478;51.462;7.338;2023-11-19T15:58:49;11.10;99.90
6879;DHT22;3478;51.462;7.338;2023-11-19T16:03:51;11.00;99.90
6879;DHT22;3478;51.462;7.338;2023-11-19T16:08:54;10.90;99.90
6879;DHT22;3478;51.462;7.338;2023-11-19T16:13:56;10.90;99.90
6879;DHT22;3478;51.462;7.338;2023-11-19T16:18:58;10.90;99.90
6879;DHT22;3478;51.462;7.338;2023-11-19T16:24:05;11.00;1.00
6879;DHT22;3478;51.462;7.338;2023-11-19T16:29:07;11.10;1.00
6879;DHT22;3478;51.462;7.338;2023-11-19T16:34:09;11.10;68.60
6879;DHT22;3478;51.462;7.338;2023-11-19T16:39:12;11.00;99.90
6879;DHT22;3478;51.462;7.338;2023-11-19T16:44:15;11.00;99.90
6879;DHT22;3478;51.462;7.338;2023-11-19T16:49:17;10.90;99.90
6879;DHT22;3478;51.462;7.338;2023-11-19T16:54:20;10.80;99.90
6879;DHT22;3478;51.462;7.338;2023-11-19T16:59:22;10.80;99.90
6879;DHT22;3478;51.462;7.338;2023-11-19T17:04:24;10.80;99.90
6879;DHT22;3478;51.462;7.338;2023-11-19T17:09:29;10.70;99.90
6879;DHT22;3478;51.462;7.338;2023-11-19T17:14:31;10.70;99.90
6879;DHT22;3478;51.462;7.338;2023-11-19T17:19:36;10.60;99.90
6879;DHT22;3478;51.462;7.338;2023-11-19T17:24:43;10.60;99.90
6879;DHT22;3478;51.462;7.338;2023-11-19T17:29:45;10.60;99.90
6879;DHT22;3478;51.462;7.338;2023-11-19T17:34:47;10.60;99.90
6879;DHT22;3478;51.462;7.338;2023-11-19T17:39:51;10.60;99.90
6879;DHT22;3478;51.462;7.338;2023-11-19T17:44:53;10.60;99.90
6879;DHT22;3478;51.462;7.338;2023-11-19T17:49:59;10.60;99.90
6879;DHT22;3478;51.462;7.338;2023-11-19T17:55:05;10.70;99.90
6879;DHT22;3478;51.462;7.338;2023-11-19T18:00:12;10.60;99.90
6879;DHT22;3478;51.462;7.338;2023-11-19T18:05:15;10.60;99.90
6879;DHT22;3478;51.462;7.338;2023-11-19T18:10:19;10.60;99.90
6879;DHT22;3478;51.462;7.338;2023-11-19T18:15:21;10.50;99.90
6879;DHT22;3478;51.462;7.338;2023-11-19T18:20:22;10.50;99.90
6879;DHT22;3478;51.462;7.338;2023-11-19T18:25:26;10.50;99.90
6879;DHT22;3478;51.462;7.338;2023-11-19T18:30:28;10.40;99.90
6879;DHT22;3478;51.462;7.338;2023-11-19T18:35:29;10.40;99.90
6879;DHT22;3478;51.462;7.338;2023-11-19T18:40:33;10.40;99.90
6879;DHT22;3478;51.462;7.338;2023-11-19T18:45:35;10.40;99.90
6879;DHT22;3478;51.462;7.338;2023-11-19T18:50:37;10.30;99.90
6879;DHT22;3478;51.462;7.338;2023-11-19T18:55:40;10.30;99.90
6879;DHT22;3478;51.462;7.338;2023-11-19T19:00:42;10.30;99.90
6879;DHT22;3478;51.462;7.338;2023-11-19T19:05:44;10.30;99.90
6879;DHT22;3478;51.462;7.338;2023-11-19T19:10:47;10.30;99.90
6879;DHT22;3478;51.462;7.338;2023-11-19T19:15:49;10.30;99.90
6879;DHT22;3478;51.462;7.338;2023-11-19T19:20:51;10.20;99.90
6879;DHT22;3478;51.462;7.338;2023-11-19T19:25:54;10.20;99.90
6879;DHT22;3478;51.462;7.338;2023-11-19T19:30:57;10.20;99.90
6879;DHT22;3478;51.462;7.338;2023-11-19T19:36:00;10.20;99.90
6879;DHT22;3478;51.462;7.338;2023-11-19T19:41:04;10.20;99.90
6879;DHT22;3478;51.462;7.338;2023-11-19T19:46:06;10.20;99.90
6879;DHT22;3478;51.462;7.338;2023-11-19T19:51:10;10.20;99.90
6879;DHT22;3478;51.462;7.338;2023-11-19T19:56:13;10.20;99.90
6879;DHT22;3478;51.462;7.338;2023-11-19T20:01:16;10.20;99.90
6879;DHT22;3478;51.462;7.338;2023-11-19T20:06:18;10.20;99.90
6879;DHT22;3478;51.462;7.338;2023-11-19T20:11:23;10.30;99.90
6879;DHT22;3478;51.462;7.338;2023-11-19T20:16:27;10.30;99.90
6879;DHT22;3478;51.462;7.338;2023-11-19T20:21:28;10.30;99.90
6879;DHT22;3478;51.462;7.338;2023-11-19T20:26:33;10.30;99.90
6879;DHT22;3478;51.462;7.338;2023-11-19T20:31:39;10.30;99.90
6879;DHT22;3478;51.462;7.338;2023-11-19T20:36:42;10.30;99.90
6879;DHT22;3478;51.462;7.338;2023-11-19T20:41:45;10.20;99.90
6879;DHT22;3478;51.462;7.338;2023-11-19T20:46:47;10.30;99.90
6879;DHT22;3478;51.462;7.338;2023-11-19T20:51:50;10.30;99.90
6879;DHT22;3478;51.462;7.338;2023-11-19T20:56:53;10.20;99.90
6879;DHT22;3478;51.462;7.338;2023-11-19T21:01:55;10.30;99.90
6879;DHT22;3478;51.462;7.338;2023-11-19T21:06:57;10.20;99.90
6879;DHT22;3478;51.462;7.338;2023-11-19T21:12:00;10.20;99.90
6879;DHT22;3478;51.462;7.338;2023-11-19T21:17:04;10.20;99.90
6879;DHT22;3478;51.462;7.338;2023-11-19T21:22:06;10.30;99.90
6879;DHT22;3478;51.462;7.338;2023-11-19T21:27:10;10.30;99.90
6879;DHT22;3478;51.462;7.338;2023-11-19T21:32:13;10.30;99.90
6879;DHT22;3478;51.462;7.338;2023-11-19T21:37:15;10.40;99.90
6879;DHT22;3478;51.462;7.338;2023-11-19T21:42:18;10.40;99.90
6879;DHT22;3478;51.462;7.338;2023-11-19T21:47:20;10.40;99.90
6879;DHT22;3478;51.462;7.338;2023-11-19T21:52:22;10.40;99.90
6879;DHT22;3478;51.462;7.338;2023-11-19T21:57:25;10.50;99.90
6879;DHT22;3478;51.462;7.338;2023-11-19T22:02:27;10.50;99.90
6879;DHT22;3478;51.462;7.338;2023-11-19T22:07:29;10.50;99.90
6879;DHT22;3478;51.462;7.338;2023-11-19T22:12:32;10.50;99.90
6879;DHT22;3478;51.462;7.338;2023-11-19T22:17:34;10.50;99.90
6879;DHT22;3478;51.462;7.338;2023-11-19T22:22:38;10.50;99.90
6879;DHT22;3478;51.462;7.338;2023-11-19T22:27:43;10.50;99.90
6879;DHT22;3478;51.462;7.338;2023-11-19T22:32:44;10.50;99.90
6879;DHT22;3478;51.462;7.338;2023-11-19T22:37:47;10.50;99.90
6879;DHT22;3478;51.462;7.338;2023-11-19T22:42:50;10.50;99.90
6879;DHT22;3478;51.462;7.338;2023-11-19T22:47:52;10.50;99.90
6879;DHT22;3478;51.462;7.338;2023-11-19T22:52:54;10.50;99.90
6879;DHT22;3478;51.462;7.338;2023-11-19T22:57:58;10.50;99.90
6879;DHT22;3478;51.462;7.338;2023-11-19T23:03:00;10.60;99.90
6879;DHT22;3478;51.462;7.338;2023-11-19T23:08:04;10.60;99.90
6879;DHT22;3478;51.462;7.338;2023-11-19T23:13:07;10.60;99.90
6879;DHT22;3478;51.462;7.338;2023-11-19T23:18:10;10.60;99.90
6879;DHT22;3478;51.462;7.338;2023-11-19T23:23:11;10.60;99.90
6879;DHT22;3478;51.462;7.338;2023-11-19T23:28:15;10.60;99.90
6879;DHT22;3478;51.462;7.338;2023-11-19T23:33:16;10.60;99.90
6879;DHT22;3478;51.462;7.338;2023-11-19T23:38:18;10.60;99.90
6879;DHT22;3478;51.462;7.338;2023-11-19T23:43:22;10.60;99.90
6879;DHT22;3478;51.462;7.338;2023-11-19T23:48:23;10.60;99.90
6879;DHT22;3478;51.462;7.338;2023-11-19T23:53:25;10.70;99.90
6879;DHT22;3478;51.462;7.338;2023-11-19T23:58:28;10.70;99.90
